Time;durP1;ratioP1;P1;durP2;ratioP2;P2;SDS_P1;SDS_P2;PMS_P1;PMS_P2;Temp;Humidity;BMP_temperature;BMP_pressure;BME280_temperature;BME280_humidity;BME280_pressure;Samples;Min_cycle;Max_cycle;Signal;HPM_P1;HPM_P2
2024/01/29 00:00:19;;;;;;;17.80;11.65;;;;;;;;;;6350092;22;20205;-85
2024/01/29 00:02:48;;;;;;;18.55;12.50;;;;;;;;;;6347367;22;20666;-85
2024/01/29 00:05:17;;;;;;;16.88;11.13;;;;;;;;;;6349222;22;20225;-85
2024/01/29 00:07:45;;;;;;;18.10;12.90;;;;;;;;;;6351152;22;20231;-83
2024/01/29 00:10:14;;;;;;;17.45;12.68;;;;;;;;;;6351435;22;20194;-83
2024/01/29 00:12:42;;;;;;;15.52;12.90;;;;;;;;;;6350561;22;20200;-83
2024/01/29 00:15:10;;;;;;;24.92;14.77;;;;;;;;;;6297725;22;20209;-84
2024/01/29 00:17:39;;;;;;;38.60;21.52;;;;;;;;;;6322313;22;20232;-83
2024/01/29 00:20:08;;;;;;;19.90;14.00;;;;;;;;;;6349396;22;20232;-83
2024/01/29 00:22:37;;;;;;;23.45;14.30;;;;;;;;;;6322806;22;20221;-83
2024/01/29 00:25:07;;;;;;;33.20;16.02;;;;;;;;;;6322796;22;20209;-83
2024/01/29 00:27:35;;;;;;;33.78;18.25;;;;;;;;;;6350119;22;20209;-83
2024/01/29 00:30:03;;;;;;;30.17;19.50;;;;;;;;;;6324643;22;20250;-83
2024/01/29 00:32:32;;;;;;;34.92;20.20;;;;;;;;;;6299391;22;20193;-83
2024/01/29 00:35:01;;;;;;;36.15;20.67;;;;;;;;;;6325304;22;20224;-83
2024/01/29 00:37:29;;;;;;;29.08;19.48;;;;;;;;;;6325757;22;20194;-84
2024/01/29 00:39:59;;;;;;;22.60;15.60;;;;;;;;;;6325872;22;20198;-84
2024/01/29 00:42:28;;;;;;;27.02;17.17;;;;;;;;;;6325956;22;20558;-84
2024/01/29 00:44:56;;;;;;;22.30;14.40;;;;;;;;;;6352100;22;20224;-84
2024/01/29 00:47:24;;;;;;;19.48;13.73;;;;;;;;;;6351510;22;20173;-84
2024/01/29 00:49:52;;;;;;;17.05;12.90;;;;;;;;;;6350594;22;20182;-84
2024/01/29 00:52:21;;;;;;;17.48;12.40;;;;;;;;;;6322051;22;20190;-83
2024/01/29 00:54:49;;;;;;;19.00;12.63;;;;;;;;;;6350915;22;20202;-84
2024/01/29 00:57:20;;;;;;;16.15;11.82;;;;;;;;;;6351571;22;20201;-84
2024/01/29 00:59:48;;;;;;;19.55;14.48;;;;;;;;;;6324839;22;20190;-84
2024/01/29 01:02:16;;;;;;;19.70;14.05;;;;;;;;;;6349484;22;20218;-83
2024/01/29 01:04:45;;;;;;;19.27;13.60;;;;;;;;;;6351702;22;20225;-83
2024/01/29 01:07:15;;;;;;;15.73;11.77;;;;;;;;;;6322901;22;20198;-84
2024/01/29 01:09:44;;;;;;;15.85;12.70;;;;;;;;;;6351065;22;20517;-83
2024/01/29 01:12:12;;;;;;;20.23;13.02;;;;;;;;;;6350620;22;20201;-84
2024/01/29 01:14:42;;;;;;;18.27;13.05;;;;;;;;;;6324173;22;20201;-84
2024/01/29 01:17:10;;;;;;;19.95;13.20;;;;;;;;;;6350192;22;20197;-84
2024/01/29 01:19:38;;;;;;;25.27;12.20;;;;;;;;;;6324153;22;20197;-83
2024/01/29 01:22:06;;;;;;;19.88;12.65;;;;;;;;;;6350525;22;20428;-84
2024/01/29 01:24:35;;;;;;;15.85;12.48;;;;;;;;;;6325815;22;20189;-84
2024/01/29 01:27:03;;;;;;;22.42;12.63;;;;;;;;;;6352371;22;20251;-84
2024/01/29 01:29:31;;;;;;;23.17;15.20;;;;;;;;;;6324948;22;20207;-84
2024/01/29 01:32:01;;;;;;;19.52;12.23;;;;;;;;;;6298742;22;20201;-85
2024/01/29 01:34:29;;;;;;;17.50;12.40;;;;;;;;;;6352157;22;20194;-83
2024/01/29 01:36:57;;;;;;;16.45;13.20;;;;;;;;;;6323012;22;20562;-84
2024/01/29 01:39:26;;;;;;;18.58;12.80;;;;;;;;;;6353346;22;20190;-83
2024/01/29 01:41:54;;;;;;;16.52;12.80;;;;;;;;;;6351517;22;20205;-84
2024/01/29 01:44:22;;;;;;;17.67;12.73;;;;;;;;;;6299131;22;20631;-83
2024/01/29 01:46:50;;;;;;;15.88;11.98;;;;;;;;;;6352994;22;20194;-84
2024/01/29 01:49:21;;;;;;;19.83;13.00;;;;;;;;;;6351896;22;20223;-83
2024/01/29 01:51:50;;;;;;;17.88;13.02;;;;;;;;;;6323875;22;20549;-84
2024/01/29 01:54:19;;;;;;;16.20;12.70;;;;;;;;;;6325402;22;20201;-83
2024/01/29 01:56:48;;;;;;;20.92;12.43;;;;;;;;;;6353125;22;20178;-83
2024/01/29 01:59:16;;;;;;;27.25;13.88;;;;;;;;;;6353093;22;20170;-84
2024/01/29 02:01:45;;;;;;;22.42;13.82;;;;;;;;;;6324586;22;20193;-84
2024/01/29 02:04:16;;;;;;;20.35;14.05;;;;;;;;;;6351282;22;20234;-83
2024/01/29 02:06:46;;;;;;;22.00;12.68;;;;;;;;;;6350444;22;20178;-84
2024/01/29 02:09:14;;;;;;;16.60;13.05;;;;;;;;;;6352923;22;20178;-84
2024/01/29 02:11:43;;;;;;;18.25;12.55;;;;;;;;;;6353058;22;20181;-83
2024/01/29 02:14:12;;;;;;;20.42;13.02;;;;;;;;;;6325453;22;20193;-83
2024/01/29 02:16:41;;;;;;;22.10;13.63;;;;;;;;;;6324593;22;20200;-84
2024/01/29 02:19:15;;;;;;;23.08;15.27;;;;;;;;;;6353279;22;20174;-83
2024/01/29 02:21:43;;;;;;;21.52;13.55;;;;;;;;;;6350587;22;20229;-83
2024/01/29 02:24:13;;;;;;;17.40;12.30;;;;;;;;;;6351041;22;20186;-84
2024/01/29 02:26:41;;;;;;;15.20;11.95;;;;;;;;;;6325156;22;20198;-83
2024/01/29 02:29:09;;;;;;;21.35;13.82;;;;;;;;;;6325816;22;20271;-84
2024/01/29 02:31:37;;;;;;;18.25;13.57;;;;;;;;;;6350648;22;20208;-84
2024/01/29 02:34:06;;;;;;;22.58;13.93;;;;;;;;;;6325916;22;20228;-84
2024/01/29 02:36:34;;;;;;;21.52;12.77;;;;;;;;;;6299135;22;20209;-83
2024/01/29 02:39:02;;;;;;;19.85;13.20;;;;;;;;;;6322664;22;20185;-84
2024/01/29 02:41:32;;;;;;;17.80;12.88;;;;;;;;;;6353353;22;20197;-83
2024/01/29 02:44:00;;;;;;;19.88;13.23;;;;;;;;;;6325162;22;20213;-83
2024/01/29 02:46:28;;;;;;;18.00;13.05;;;;;;;;;;6325641;22;20197;-83
2024/01/29 02:48:57;;;;;;;18.00;12.98;;;;;;;;;;6351887;22;20201;-83
2024/01/29 02:51:26;;;;;;;17.17;13.23;;;;;;;;;;6352393;22;20202;-83
2024/01/29 02:53:54;;;;;;;16.85;11.32;;;;;;;;;;6324955;22;20197;-83
2024/01/29 02:56:22;;;;;;;15.85;13.48;;;;;;;;;;6351364;22;20208;-83
2024/01/29 02:58:52;;;;;;;17.40;12.70;;;;;;;;;;6352813;22;20173;-83
2024/01/29 03:01:20;;;;;;;15.57;12.98;;;;;;;;;;6350735;22;20206;-84
2024/01/29 03:03:48;;;;;;;25.52;13.02;;;;;;;;;;6323698;22;20204;-83
2024/01/29 03:06:17;;;;;;;16.80;13.00;;;;;;;;;;6323689;22;20202;-83
2024/01/29 03:08:46;;;;;;;17.67;13.68;;;;;;;;;;6325071;22;20292;-83
2024/01/29 03:11:14;;;;;;;19.13;13.25;;;;;;;;;;6299944;22;20205;-83
2024/01/29 03:13:43;;;;;;;18.38;12.75;;;;;;;;;;6323606;22;20198;-83
2024/01/29 03:16:13;;;;;;;17.05;12.98;;;;;;;;;;6353450;22;20170;-83
2024/01/29 03:18:41;;;;;;;19.83;12.93;;;;;;;;;;6351109;22;20197;-83
2024/01/29 03:21:10;;;;;;;21.50;13.70;;;;;;;;;;6296463;22;20581;-83
2024/01/29 03:23:38;;;;;;;18.15;12.38;;;;;;;;;;6350714;22;20225;-83
2024/01/29 03:26:06;;;;;;;19.17;12.38;;;;;;;;;;6324497;22;20227;-83
2024/01/29 03:28:34;;;;;;;20.05;12.85;;;;;;;;;;6352368;22;20189;-83
2024/01/29 03:31:03;;;;;;;19.15;11.95;;;;;;;;;;6325093;22;20207;-83
2024/01/29 03:33:32;;;;;;;20.63;12.07;;;;;;;;;;6352980;22;20193;-83
2024/01/29 03:36:04;;;;;;;16.23;11.48;;;;;;;;;;6324872;22;20193;-83
2024/01/29 03:38:32;;;;;;;19.17;13.70;;;;;;;;;;6299801;22;20559;-83
2024/01/29 03:41:01;;;;;;;18.13;12.02;;;;;;;;;;6323549;22;20205;-83
2024/01/29 03:43:29;;;;;;;17.23;12.52;;;;;;;;;;6352222;22;20209;-83
2024/01/29 03:45:58;;;;;;;19.33;11.40;;;;;;;;;;6326098;22;20220;-83
2024/01/29 03:48:27;;;;;;;17.35;12.73;;;;;;;;;;6353027;22;20197;-83
2024/01/29 03:50:57;;;;;;;23.83;12.65;;;;;;;;;;6353526;22;20177;-83
2024/01/29 03:53:25;;;;;;;16.75;11.50;;;;;;;;;;6326011;22;20170;-84
2024/01/29 03:55:55;;;;;;;17.90;11.77;;;;;;;;;;6326175;22;20197;-83
2024/01/29 03:58:23;;;;;;;16.40;12.18;;;;;;;;;;6353378;22;20177;-83
2024/01/29 04:00:51;;;;;;;16.50;11.77;;;;;;;;;;6324637;22;20220;-83
2024/01/29 04:03:19;;;;;;;18.90;12.07;;;;;;;;;;6352409;22;20576;-83
2024/01/29 04:05:48;;;;;;;15.50;11.15;;;;;;;;;;6327172;22;20255;-83
2024/01/29 04:08:17;;;;;;;16.75;12.05;;;;;;;;;;6327093;22;20635;-83
2024/01/29 04:10:45;;;;;;;20.60;11.23;;;;;;;;;;6327864;22;20227;-83
2024/01/29 04:13:14;;;;;;;15.57;10.98;;;;;;;;;;6327617;22;20177;-84
2024/01/29 04:15:42;;;;;;;16.23;11.60;;;;;;;;;;6353998;22;20205;-83
2024/01/29 04:18:10;;;;;;;18.95;12.20;;;;;;;;;;6328130;22;20201;-83
2024/01/29 04:20:39;;;;;;;16.30;12.35;;;;;;;;;;6297045;22;20206;-83
2024/01/29 04:23:08;;;;;;;12.95;10.55;;;;;;;;;;6323338;22;20170;-83
2024/01/29 04:25:38;;;;;;;17.65;12.57;;;;;;;;;;6321909;22;20202;-83
2024/01/29 04:28:07;;;;;;;23.17;13.50;;;;;;;;;;6323152;22;20257;-84
2024/01/29 04:30:35;;;;;;;18.23;13.05;;;;;;;;;;6322287;22;20194;-84
2024/01/29 04:33:04;;;;;;;21.02;12.68;;;;;;;;;;6297536;22;20198;-84
2024/01/29 04:35:32;;;;;;;15.50;11.55;;;;;;;;;;6321483;22;20198;-83
2024/01/29 04:38:00;;;;;;;15.82;12.00;;;;;;;;;;6321500;22;20205;-83
2024/01/29 04:40:29;;;;;;;15.20;13.18;;;;;;;;;;6296117;22;20191;-83
2024/01/29 04:42:58;;;;;;;20.63;13.43;;;;;;;;;;6296757;22;20530;-84
2024/01/29 04:45:27;;;;;;;20.55;11.93;;;;;;;;;;6296876;22;20248;-83
2024/01/29 04:47:55;;;;;;;24.40;12.68;;;;;;;;;;6323566;22;20204;-83
2024/01/29 04:50:23;;;;;;;21.55;13.82;;;;;;;;;;6322797;22;20182;-83
2024/01/29 04:52:52;;;;;;;18.92;13.43;;;;;;;;;;6323923;22;20526;-83
2024/01/29 04:55:20;;;;;;;25.15;13.98;;;;;;;;;;6323538;22;20256;-83
2024/01/29 04:57:48;;;;;;;17.17;13.32;;;;;;;;;;6322723;22;20179;-83
2024/01/29 05:00:18;;;;;;;25.60;13.40;;;;;;;;;;6322068;22;20209;-83
2024/01/29 05:02:47;;;;;;;19.48;13.48;;;;;;;;;;6322650;22;20187;-85
2024/01/29 05:05:17;;;;;;;18.30;12.65;;;;;;;;;;6322242;22;20578;-83
2024/01/29 05:07:45;;;;;;;17.35;13.40;;;;;;;;;;6321609;22;20185;-82
2024/01/29 05:10:15;;;;;;;18.27;14.02;;;;;;;;;;6322346;22;20199;-83
2024/01/29 05:12:43;;;;;;;21.38;16.45;;;;;;;;;;6321253;22;20175;-82
2024/01/29 05:15:11;;;;;;;27.75;15.45;;;;;;;;;;6322961;22;20194;-83
2024/01/29 05:17:42;;;;;;;24.30;14.77;;;;;;;;;;6295479;22;20240;-83
2024/01/29 05:20:11;;;;;;;21.65;14.63;;;;;;;;;;6296340;22;20232;-83
2024/01/29 05:22:39;;;;;;;20.15;16.02;;;;;;;;;;6321500;22;20171;-83
2024/01/29 05:25:09;;;;;;;22.48;15.38;;;;;;;;;;6321136;22;20194;-84
2024/01/29 05:27:37;;;;;;;24.88;13.55;;;;;;;;;;6319308;22;20198;-83
2024/01/29 05:30:06;;;;;;;25.10;14.93;;;;;;;;;;6320149;22;20217;-83
2024/01/29 05:32:35;;;;;;;21.55;15.30;;;;;;;;;;6321598;22;20217;-83
2024/01/29 05:35:06;;;;;;;22.83;14.57;;;;;;;;;;6320537;22;20228;-83
2024/01/29 05:37:34;;;;;;;20.67;15.48;;;;;;;;;;6321508;22;20179;-83
2024/01/29 05:40:04;;;;;;;33.20;19.20;;;;;;;;;;6322097;22;20214;-83
2024/01/29 05:42:32;;;;;;;22.20;17.17;;;;;;;;;;6322360;22;20199;-84
2024/01/29 05:45:01;;;;;;;22.67;16.20;;;;;;;;;;6322072;22;20218;-84
2024/01/29 05:47:30;;;;;;;24.20;18.08;;;;;;;;;;6322296;22;20221;-84
2024/01/29 05:50:00;;;;;;;22.27;16.05;;;;;;;;;;6324806;22;20175;-84
2024/01/29 05:52:30;;;;;;;24.40;16.63;;;;;;;;;;6311166;22;20242;-83
2024/01/29 05:55:00;;;;;;;19.30;15.45;;;;;;;;;;6311345;22;20213;-82
2024/01/29 05:57:28;;;;;;;21.73;14.68;;;;;;;;;;6309029;22;20230;-82
2024/01/29 05:59:57;;;;;;;23.42;15.95;;;;;;;;;;6311788;22;20246;-83
2024/01/29 06:02:25;;;;;;;27.15;15.80;;;;;;;;;;6309095;22;20601;-83
2024/01/29 06:04:53;;;;;;;24.50;15.73;;;;;;;;;;6309621;22;20274;-83
2024/01/29 06:07:21;;;;;;;23.48;16.15;;;;;;;;;;6312999;22;20559;-81
2024/01/29 06:09:51;;;;;;;21.10;13.45;;;;;;;;;;6312402;22;20216;-82
2024/01/29 06:12:19;;;;;;;23.33;14.65;;;;;;;;;;6286110;22;20247;-81
2024/01/29 06:14:48;;;;;;;27.23;16.23;;;;;;;;;;6310650;22;20663;-82
2024/01/29 06:17:16;;;;;;;23.75;13.80;;;;;;;;;;6309355;22;20202;-82
2024/01/29 06:19:44;;;;;;;20.17;15.00;;;;;;;;;;6309993;22;20274;-82
2024/01/29 06:22:12;;;;;;;18.10;13.90;;;;;;;;;;6285731;22;20183;-84
2024/01/29 06:24:41;;;;;;;19.80;15.15;;;;;;;;;;6311372;22;20243;-84
2024/01/29 06:27:10;;;;;;;23.30;13.88;;;;;;;;;;6310527;22;20202;-84
2024/01/29 06:29:38;;;;;;;20.88;14.38;;;;;;;;;;6308748;22;20733;-83
2024/01/29 06:32:07;;;;;;;19.10;14.50;;;;;;;;;;6313198;22;20187;-81
2024/01/29 06:34:37;;;;;;;22.10;15.88;;;;;;;;;;6286164;22;20669;-84
2024/01/29 06:37:05;;;;;;;20.63;15.05;;;;;;;;;;6310673;22;20259;-82
2024/01/29 06:39:33;;;;;;;40.42;23.38;;;;;;;;;;6309417;22;20259;-83
2024/01/29 06:42:02;;;;;;;35.00;20.25;;;;;;;;;;6315657;22;20210;-81
2024/01/29 06:44:31;;;;;;;37.40;23.15;;;;;;;;;;6313722;22;20232;-83
2024/01/29 06:47:00;;;;;;;27.10;17.25;;;;;;;;;;6312063;22;20198;-83
2024/01/29 06:49:30;;;;;;;27.83;16.63;;;;;;;;;;6289409;22;20729;-83
2024/01/29 06:51:59;;;;;;;22.52;16.27;;;;;;;;;;6320570;22;20162;-85
2024/01/29 06:54:28;;;;;;;38.72;14.68;;;;;;;;;;6316606;22;20190;-86
2024/01/29 06:56:56;;;;;;;24.08;16.25;;;;;;;;;;6294239;22;20206;-85
2024/01/29 06:59:26;;;;;;;21.77;15.45;;;;;;;;;;6327727;22;20201;-86
2024/01/29 07:02:00;;;;;;;22.35;16.45;;;;;;;;;;6300737;22;20177;-85
2024/01/29 07:04:28;;;;;;;27.92;17.67;;;;;;;;;;6324959;22;20154;-87
2024/01/29 07:06:57;;;;;;;22.80;16.55;;;;;;;;;;6321026;22;20174;-85
2024/01/29 07:09:25;;;;;;;25.17;16.67;;;;;;;;;;6295455;22;20194;-86
2024/01/29 07:11:53;;;;;;;25.52;17.20;;;;;;;;;;6333143;22;20166;-87
2024/01/29 07:14:22;;;;;;;21.40;16.77;;;;;;;;;;6333551;22;20162;-87
2024/01/29 07:16:50;;;;;;;29.88;19.73;;;;;;;;;;6328332;22;20171;-86
2024/01/29 07:19:25;;;;;;;21.95;16.38;;;;;;;;;;6318876;22;20208;-87
2024/01/29 07:21:53;;;;;;;28.90;17.65;;;;;;;;;;6317065;22;20178;-85
2024/01/29 07:24:22;;;;;;;24.63;17.80;;;;;;;;;;6316164;22;20206;-86
2024/01/29 07:26:50;;;;;;;26.02;17.98;;;;;;;;;;6314181;22;20206;-87
2024/01/29 07:29:18;;;;;;;23.55;16.40;;;;;;;;;;6314814;22;20200;-87
2024/01/29 07:31:47;;;;;;;28.77;16.40;;;;;;;;;;6316081;22;20202;-86
2024/01/29 07:34:15;;;;;;;27.38;15.35;;;;;;;;;;6299203;22;20174;-85
2024/01/29 07:36:45;;;;;;;24.60;16.45;;;;;;;;;;6299770;22;20166;-87
2024/01/29 07:39:13;;;;;;;22.58;15.25;;;;;;;;;;6326529;22;20170;-86
2024/01/29 07:41:41;;;;;;;21.88;15.15;;;;;;;;;;6320289;22;20201;-85
2024/01/29 07:44:10;;;;;;;19.90;14.48;;;;;;;;;;6295258;22;20176;-86
2024/01/29 07:46:38;;;;;;;23.38;16.10;;;;;;;;;;6319359;22;20256;-88
2024/01/29 07:49:07;;;;;;;22.55;15.75;;;;;;;;;;6296102;22;20200;-87
2024/01/29 07:51:36;;;;;;;21.77;14.52;;;;;;;;;;6322963;22;20170;-87
2024/01/29 07:54:06;;;;;;;22.70;16.77;;;;;;;;;;6299068;22;20234;-88
2024/01/29 07:56:38;;;;;;;20.70;15.20;;;;;;;;;;6323043;22;20193;-88
2024/01/29 07:59:07;;;;;;;20.40;16.15;;;;;;;;;;6321449;22;20166;-87
2024/01/29 08:01:35;;;;;;;53.10;19.63;;;;;;;;;;6320617;22;20178;-87
2024/01/29 08:04:03;;;;;;;26.00;17.20;;;;;;;;;;6320838;22;20175;-87
2024/01/29 08:06:32;;;;;;;29.00;17.67;;;;;;;;;;6317230;22;20971;-87
2024/01/29 08:09:00;;;;;;;28.55;17.88;;;;;;;;;;6291348;22;20209;-86
2024/01/29 08:11:30;;;;;;;24.05;17.25;;;;;;;;;;6315485;22;20224;-87
2024/01/29 08:13:59;;;;;;;29.60;20.25;;;;;;;;;;6288060;22;20177;-87
2024/01/29 08:16:27;;;;;;;25.38;20.60;;;;;;;;;;6324075;22;20182;-87
2024/01/29 08:18:56;;;;;;;26.52;19.30;;;;;;;;;;6313940;22;20235;-84
2024/01/29 08:21:24;;;;;;;25.67;19.45;;;;;;;;;;6290403;22;20199;-87
2024/01/29 08:23:53;;;;;;;24.90;19.88;;;;;;;;;;6291569;22;20209;-87
2024/01/29 08:26:21;;;;;;;27.42;20.73;;;;;;;;;;6312055;22;20218;-86
2024/01/29 08:28:51;;;;;;;27.35;18.55;;;;;;;;;;6319059;22;20206;-89
2024/01/29 08:31:20;;;;;;;26.48;19.90;;;;;;;;;;6303324;22;20143;-88
2024/01/29 08:33:48;;;;;;;30.45;21.92;;;;;;;;;;6300687;22;20179;-88
2024/01/29 08:36:20;;;;;;;44.10;31.13;;;;;;;;;;6323226;22;20170;-88
2024/01/29 08:38:48;;;;;;;25.85;19.00;;;;;;;;;;6322751;22;20162;-87
2024/01/29 08:41:17;;;;;;;24.38;18.23;;;;;;;;;;6301525;22;20162;-87
2024/01/29 08:43:45;;;;;;;26.42;18.60;;;;;;;;;;6313721;22;20194;-85
2024/01/29 08:46:15;;;;;;;25.17;18.33;;;;;;;;;;6309164;22;20225;-85
2024/01/29 08:48:43;;;;;;;24.27;17.10;;;;;;;;;;6301950;22;20174;-86
2024/01/29 08:51:11;;;;;;;25.70;18.35;;;;;;;;;;6330020;22;20170;-85
2024/01/29 08:53:40;;;;;;;27.85;19.35;;;;;;;;;;6302708;22;20159;-86
2024/01/29 08:56:09;;;;;;;26.65;19.48;;;;;;;;;;6296783;22;20174;-87
2024/01/29 08:58:37;;;;;;;24.00;18.35;;;;;;;;;;6329809;22;20232;-87
2024/01/29 09:01:06;;;;;;;29.13;19.30;;;;;;;;;;6328231;22;20181;-86
2024/01/29 09:03:36;;;;;;;22.70;16.90;;;;;;;;;;6302718;22;20189;-87
2024/01/29 09:06:04;;;;;;;28.42;17.75;;;;;;;;;;6328254;22;20182;-88
2024/01/29 09:08:32;;;;;;;30.02;19.15;;;;;;;;;;6329290;22;20174;-86
2024/01/29 09:11:01;;;;;;;28.20;20.27;;;;;;;;;;6305676;22;20171;-87
2024/01/29 09:13:29;;;;;;;23.10;18.83;;;;;;;;;;6329592;22;20167;-86
2024/01/29 09:15:58;;;;;;;24.95;19.80;;;;;;;;;;6331424;22;20167;-88
2024/01/29 09:18:26;;;;;;;22.13;17.30;;;;;;;;;;6307907;22;20151;-87
2024/01/29 09:20:57;;;;;;;22.50;17.48;;;;;;;;;;6329929;22;20182;-85
2024/01/29 09:23:25;;;;;;;26.90;19.92;;;;;;;;;;6329227;22;20159;-85
2024/01/29 09:25:53;;;;;;;29.75;19.48;;;;;;;;;;6329071;22;20208;-86
2024/01/29 09:28:22;;;;;;;23.77;17.40;;;;;;;;;;6332948;22;20182;-86
2024/01/29 09:30:50;;;;;;;31.48;19.58;;;;;;;;;;6331311;22;20154;-86
2024/01/29 09:33:19;;;;;;;24.17;18.45;;;;;;;;;;6333359;22;20197;-85
2024/01/29 09:35:48;;;;;;;22.98;16.75;;;;;;;;;;6334291;22;20154;-86
2024/01/29 09:38:18;;;;;;;24.77;17.42;;;;;;;;;;6329542;22;20171;-86
2024/01/29 09:40:47;;;;;;;23.08;16.45;;;;;;;;;;6326729;22;20185;-86
2024/01/29 09:43:17;;;;;;;22.17;17.88;;;;;;;;;;6298739;22;20165;-87
2024/01/29 09:45:46;;;;;;;21.60;16.52;;;;;;;;;;6330450;22;20167;-85
2024/01/29 09:48:16;;;;;;;20.95;18.05;;;;;;;;;;6329683;22;20171;-87
2024/01/29 09:50:45;;;;;;;22.00;16.27;;;;;;;;;;6328783;22;20182;-87
2024/01/29 09:53:17;;;;;;;21.50;16.98;;;;;;;;;;6330038;22;20155;-86
2024/01/29 09:55:47;;;;;;;25.58;17.05;;;;;;;;;;6328125;22;20163;-87
2024/01/29 09:58:16;;;;;;;21.50;16.48;;;;;;;;;;6331121;22;20167;-87
2024/01/29 10:00:44;;;;;;;21.65;16.05;;;;;;;;;;6329708;22;20269;-86
2024/01/29 10:03:15;;;;;;;18.80;15.25;;;;;;;;;;6328420;22;20196;-87
2024/01/29 10:05:44;;;;;;;22.00;16.92;;;;;;;;;;6332152;22;20229;-87
2024/01/29 10:08:14;;;;;;;18.77;15.55;;;;;;;;;;6331307;22;20177;-87
2024/01/29 10:10:44;;;;;;;21.35;15.98;;;;;;;;;;6306252;22;20189;-87
2024/01/29 10:13:14;;;;;;;20.35;17.40;;;;;;;;;;6332798;22;20158;-86
2024/01/29 10:15:43;;;;;;;18.40;14.80;;;;;;;;;;6331987;22;20166;-87
2024/01/29 10:21:02;;;;;;;25.25;16.08;;;;;;;;;;5129259;27;20786;-66
2024/01/29 10:23:30;;;;;;;19.33;14.65;;;;;;;;;;5128275;27;20190;-66
2024/01/29 10:25:59;;;;;;;18.13;15.18;;;;;;;;;;5128588;27;20258;-67
2024/01/29 10:28:28;;;;;;;19.20;15.45;;;;;;;;;;5124680;27;20200;-66
2024/01/29 10:30:56;;;;;;;20.52;15.30;;;;;;;;;;5128615;27;20198;-66
2024/01/29 10:33:24;;;;;;;20.85;15.35;;;;;;;;;;5127782;27;20202;-66
2024/01/29 10:35:53;;;;;;;26.08;17.75;;;;;;;;;;5127904;27;20250;-66
2024/01/29 10:38:23;;;;;;;16.33;13.55;;;;;;;;;;5125723;28;20194;-66
2024/01/29 10:40:53;;;;;;;19.08;15.48;;;;;;;;;;5127626;27;20212;-65
2024/01/29 10:43:21;;;;;;;21.15;15.55;;;;;;;;;;5125887;28;20206;-66
2024/01/29 10:45:52;;;;;;;18.52;14.70;;;;;;;;;;5128604;27;20568;-67
2024/01/29 10:48:21;;;;;;;17.23;15.30;;;;;;;;;;5127660;27;20238;-67
2024/01/29 10:50:50;;;;;;;17.30;14.93;;;;;;;;;;5127720;27;20194;-67
2024/01/29 10:53:19;;;;;;;21.33;14.77;;;;;;;;;;5107472;28;20207;-67
2024/01/29 10:55:51;;;;;;;16.10;13.95;;;;;;;;;;5125740;28;20655;-66
2024/01/29 10:58:21;;;;;;;15.45;13.80;;;;;;;;;;5106935;28;20194;-67
2024/01/29 11:00:51;;;;;;;18.83;14.15;;;;;;;;;;5122315;28;20792;-67
2024/01/29 11:03:21;;;;;;;16.25;13.35;;;;;;;;;;5101662;28;20194;-67
2024/01/29 11:05:52;;;;;;;14.88;13.07;;;;;;;;;;5103077;28;20194;-67
2024/01/29 11:08:24;;;;;;;17.20;13.32;;;;;;;;;;5106859;28;20243;-67
2024/01/29 11:10:54;;;;;;;20.52;14.65;;;;;;;;;;5087386;28;20188;-66
2024/01/29 11:13:22;;;;;;;19.08;13.60;;;;;;;;;;5085527;28;20199;-67
2024/01/29 11:15:51;;;;;;;16.70;14.85;;;;;;;;;;5102678;28;20571;-67
2024/01/29 11:18:19;;;;;;;17.27;15.47;;;;;;;;;;5105508;28;20563;-67
2024/01/29 11:20:51;;;;;;;20.52;18.42;;;;;;;;;;5105862;28;20698;-67
2024/01/29 11:23:22;;;;;;;19.73;17.83;;;;;;;;;;5106773;28;20247;-67
2024/01/29 11:25:51;;;;;;;18.07;16.30;;;;;;;;;;5105933;28;20605;-67
2024/01/29 11:28:21;;;;;;;20.57;18.70;;;;;;;;;;5121591;28;20587;-67
2024/01/29 11:30:52;;;;;;;20.10;18.43;;;;;;;;;;5100344;28;20924;-67
2024/01/29 11:33:21;;;;;;;20.77;19.00;;;;;;;;;;5091008;28;20941;-67
2024/01/29 11:35:55;;;;;;;20.60;18.43;;;;;;;;;;5092789;28;20596;-69
2024/01/29 11:38:24;;;;;;;24.47;19.37;;;;;;;;;;5093079;28;20593;-66
2024/01/29 11:40:52;;;;;;;21.03;19.13;;;;;;;;;;5092404;28;21229;-67
2024/01/29 11:43:22;;;;;;;21.67;19.67;;;;;;;;;;5092394;28;20619;-67
2024/01/29 11:45:50;;;;;;;22.27;20.00;;;;;;;;;;5092766;28;20613;-66
2024/01/29 11:48:20;;;;;;;21.40;19.27;;;;;;;;;;5092247;28;20621;-68
2024/01/29 11:50:51;;;;;;;21.60;19.73;;;;;;;;;;5092695;28;20629;-68
2024/01/29 11:53:20;;;;;;;22.37;20.47;;;;;;;;;;5073069;28;20692;-67
2024/01/29 11:55:49;;;;;;;22.77;20.83;;;;;;;;;;5073189;28;21183;-67
2024/01/29 11:58:18;;;;;;;20.83;18.83;;;;;;;;;;5080914;28;20609;-66
2024/01/29 12:00:49;;;;;;;21.37;19.63;;;;;;;;;;5092295;28;20724;-67
2024/01/29 12:03:21;;;;;;;23.40;21.10;;;;;;;;;;5086887;28;20608;-67
2024/01/29 12:05:51;;;;;;;23.23;21.03;;;;;;;;;;5070995;28;21146;-67
2024/01/29 12:08:20;;;;;;;23.20;21.30;;;;;;;;;;5081384;28;20575;-67
2024/01/29 12:10:49;;;;;;;24.27;22.10;;;;;;;;;;5089969;28;20641;-67
2024/01/29 12:13:18;;;;;;;24.07;21.80;;;;;;;;;;5092439;28;20613;-67
2024/01/29 12:15:47;;;;;;;23.63;21.83;;;;;;;;;;5093640;28;20622;-66
2024/01/29 12:18:18;;;;;;;33.90;30.60;;;;;;;;;;5087420;28;20727;-65
2024/01/29 12:20:47;;;;;;;25.07;23.10;;;;;;;;;;5080608;28;20657;-65
2024/01/29 12:23:16;;;;;;;24.03;21.93;;;;;;;;;;5095353;28;20628;-65
2024/01/29 12:25:44;;;;;;;25.00;22.80;;;;;;;;;;5096585;28;20620;-63
2024/01/29 12:28:15;;;;;;;23.83;22.10;;;;;;;;;;5096308;28;20616;-63
2024/01/29 12:30:43;;;;;;;24.27;22.23;;;;;;;;;;5097790;28;20693;-63
2024/01/29 12:33:20;;;;;;;22.70;21.00;;;;;;;;;;5097534;28;20696;-65
2024/01/29 12:35:49;;;;;;;23.47;21.80;;;;;;;;;;5078441;28;20640;-63
2024/01/29 12:38:17;;;;;;;23.00;21.40;;;;;;;;;;5090003;28;20705;-62
2024/01/29 12:40:46;;;;;;;23.40;21.50;;;;;;;;;;5100031;28;21381;-64
2024/01/29 12:43:14;;;;;;;25.03;22.03;;;;;;;;;;5094283;28;20681;-63
2024/01/29 12:45:44;;;;;;;28.27;22.00;;;;;;;;;;5099000;28;20685;-64
2024/01/29 12:48:15;;;;;;;22.70;21.10;;;;;;;;;;5099997;28;20712;-65
2024/01/29 12:50:45;;;;;;;21.77;20.20;;;;;;;;;;5099443;28;20688;-65
2024/01/29 12:53:13;;;;;;;23.57;21.43;;;;;;;;;;5100455;28;20684;-64
2024/01/29 12:55:42;;;;;;;22.87;21.03;;;;;;;;;;5094816;28;20715;-65
2024/01/29 12:58:10;;;;;;;23.20;21.27;;;;;;;;;;5098532;28;20705;-65
2024/01/29 13:00:40;;;;;;;22.57;20.50;;;;;;;;;;5098877;28;20740;-68
2024/01/29 13:03:09;;;;;;;23.97;22.17;;;;;;;;;;5100577;28;20704;-67
2024/01/29 13:05:37;;;;;;;22.23;20.70;;;;;;;;;;5107635;28;21200;-67
2024/01/29 13:08:07;;;;;;;22.73;20.80;;;;;;;;;;5125151;28;20652;-66
2024/01/29 13:10:37;;;;;;;23.10;21.00;;;;;;;;;;5104850;28;20637;-64
2024/01/29 13:13:06;;;;;;;23.30;21.17;;;;;;;;;;5103899;28;20684;-62
2024/01/29 13:15:34;;;;;;;23.80;22.10;;;;;;;;;;5106539;28;20633;-63
2024/01/29 13:18:03;;;;;;;22.60;21.20;;;;;;;;;;5106873;28;20673;-63
2024/01/29 13:20:31;;;;;;;22.53;20.90;;;;;;;;;;5107845;28;20728;-64
2024/01/29 13:23:00;;;;;;;22.43;20.90;;;;;;;;;;5103719;28;20708;-62
2024/01/29 13:25:29;;;;;;;22.97;21.50;;;;;;;;;;5109276;28;20692;-63
2024/01/29 13:27:57;;;;;;;22.37;20.87;;;;;;;;;;5100020;28;20680;-63
2024/01/29 13:30:25;;;;;;;23.23;21.63;;;;;;;;;;5097210;28;20716;-66
2024/01/29 13:32:54;;;;;;;25.03;21.40;;;;;;;;;;5080770;28;20613;-63
2024/01/29 13:35:22;;;;;;;23.87;21.90;;;;;;;;;;5085482;28;20654;-62
2024/01/29 13:37:50;;;;;;;22.93;21.33;;;;;;;;;;5086650;28;20633;-63
2024/01/29 13:40:19;;;;;;;23.57;21.63;;;;;;;;;;5103285;28;20744;-64
2024/01/29 13:42:49;;;;;;;24.33;22.43;;;;;;;;;;5102388;28;20700;-64
2024/01/29 13:45:17;;;;;;;24.47;22.63;;;;;;;;;;5102977;28;20688;-67
2024/01/29 13:47:46;;;;;;;22.63;21.23;;;;;;;;;;5096488;28;20685;-64
2024/01/29 13:50:14;;;;;;;24.87;22.97;;;;;;;;;;5101242;28;20681;-64
2024/01/29 13:52:42;;;;;;;23.87;22.20;;;;;;;;;;5098043;28;20672;-64
2024/01/29 13:55:11;;;;;;;26.33;23.80;;;;;;;;;;5098467;28;21339;-63
2024/01/29 13:57:39;;;;;;;24.17;22.43;;;;;;;;;;5098253;28;20724;-65
2024/01/29 14:00:10;;;;;;;24.43;22.53;;;;;;;;;;5093355;28;20632;-64
2024/01/29 14:02:39;;;;;;;26.57;24.10;;;;;;;;;;5091073;28;20588;-64
2024/01/29 14:05:08;;;;;;;24.30;22.60;;;;;;;;;;5092181;28;20613;-63
2024/01/29 14:07:36;;;;;;;23.03;21.53;;;;;;;;;;5094452;28;20674;-63
2024/01/29 14:10:04;;;;;;;23.07;21.30;;;;;;;;;;5100370;28;20698;-63
2024/01/29 14:12:32;;;;;;;23.23;21.53;;;;;;;;;;5101992;28;20673;-65
2024/01/29 14:15:03;;;;;;;20.53;19.33;;;;;;;;;;5101442;28;20717;-63
2024/01/29 14:17:33;;;;;;;22.30;20.60;;;;;;;;;;5093617;28;20627;-64
2024/01/29 14:20:02;;;;;;;22.90;20.80;;;;;;;;;;5095279;28;20709;-63
2024/01/29 14:22:30;;;;;;;23.20;21.60;;;;;;;;;;5092339;28;20655;-63
2024/01/29 14:24:59;;;;;;;23.97;22.23;;;;;;;;;;5093437;28;20618;-67
2024/01/29 14:27:27;;;;;;;22.83;21.27;;;;;;;;;;5092808;28;20614;-64